sensor_id;sensor_type;location;lat;lon;timestamp;P1;durP1;ratioP1;P2;durP2;ratioP2
44120;SDS011;29783;52.504;13.478;2023-07-30T00:00:24;7.35;;;6.43;;
44120;SDS011;29783;52.504;13.478;2023-07-30T00:02:50;7.00;;;6.30;;
44120;SDS011;29783;52.504;13.478;2023-07-30T00:05:16;7.10;;;6.40;;
44120;SDS011;29783;52.504;13.478;2023-07-30T00:07:42;6.47;;;5.65;;
44120;SDS011;29783;52.504;13.478;2023-07-30T00:10:09;6.57;;;5.93;;
44120;SDS011;29783;52.504;13.478;2023-07-30T00:12:34;10.27;;;6.30;;
44120;SDS011;29783;52.504;13.478;2023-07-30T00:15:00;7.50;;;6.45;;
44120;SDS011;29783;52.504;13.478;2023-07-30T00:17:26;11.15;;;6.57;;
44120;SDS011;29783;52.504;13.478;2023-07-30T00:19:51;11.50;;;5.97;;
44120;SDS011;29783;52.504;13.478;2023-07-30T00:22:17;7.32;;;6.50;;
44120;SDS011;29783;52.504;13.478;2023-07-30T00:24:43;6.53;;;5.53;;
44120;SDS011;29783;52.504;13.478;2023-07-30T00:27:08;7.97;;;6.35;;
44120;SDS011;29783;52.504;13.478;2023-07-30T00:29:34;7.72;;;5.90;;
44120;SDS011;29783;52.504;13.478;2023-07-30T00:32:01;6.20;;;5.60;;
44120;SDS011;29783;52.504;13.478;2023-07-30T00:34:26;7.53;;;6.28;;
44120;SDS011;29783;52.504;13.478;2023-07-30T00:36:52;5.75;;;4.75;;
44120;SDS011;29783;52.504;13.478;2023-07-30T00:39:18;10.15;;;6.15;;
44120;SDS011;29783;52.504;13.478;2023-07-30T00:41:44;11.88;;;5.78;;
44120;SDS011;29783;52.504;13.478;2023-07-30T00:44:10;14.15;;;5.53;;
44120;SDS011;29783;52.504;13.478;2023-07-30T00:46:36;5.63;;;5.05;;
44120;SDS011;29783;52.504;13.478;2023-07-30T00:55:05;6.95;;;5.25;;
44120;SDS011;29783;52.504;13.478;2023-07-30T00:57:32;9.38;;;5.15;;
44120;SDS011;29783;52.504;13.478;2023-07-30T01:00:01;5.85;;;5.25;;
44120;SDS011;29783;52.504;13.478;2023-07-30T01:02:30;6.25;;;4.82;;
44120;SDS011;29783;52.504;13.478;2023-07-30T01:04:56;5.13;;;4.05;;
44120;SDS011;29783;52.504;13.478;2023-07-30T01:07:25;6.00;;;3.97;;
44120;SDS011;29783;52.504;13.478;2023-07-30T01:09:50;5.85;;;3.70;;
44120;SDS011;29783;52.504;13.478;2023-07-30T01:12:17;8.85;;;4.03;;
44120;SDS011;29783;52.504;13.478;2023-07-30T01:14:43;7.15;;;4.30;;
44120;SDS011;29783;52.504;13.478;2023-07-30T01:17:11;4.93;;;4.25;;
44120;SDS011;29783;52.504;13.478;2023-07-30T01:19:38;7.00;;;4.05;;
44120;SDS011;29783;52.504;13.478;2023-07-30T01:22:04;6.90;;;3.72;;
44120;SDS011;29783;52.504;13.478;2023-07-30T01:24:30;6.68;;;3.60;;
44120;SDS011;29783;52.504;13.478;2023-07-30T01:27:01;4.28;;;2.92;;
44120;SDS011;29783;52.504;13.478;2023-07-30T01:32:16;4.85;;;3.20;;
44120;SDS011;29783;52.504;13.478;2023-07-30T01:34:43;4.97;;;3.85;;
44120;SDS011;29783;52.504;13.478;2023-07-30T01:37:12;4.95;;;2.97;;
44120;SDS011;29783;52.504;13.478;2023-07-30T01:39:40;5.20;;;2.95;;
44120;SDS011;29783;52.504;13.478;2023-07-30T01:42:11;4.80;;;2.83;;
44120;SDS011;29783;52.504;13.478;2023-07-30T01:44:37;4.43;;;3.20;;
44120;SDS011;29783;52.504;13.478;2023-07-30T01:47:03;4.47;;;3.58;;
44120;SDS011;29783;52.504;13.478;2023-07-30T01:49:28;6.05;;;3.80;;
44120;SDS011;29783;52.504;13.478;2023-07-30T01:51:54;5.40;;;3.95;;
44120;SDS011;29783;52.504;13.478;2023-07-30T01:54:20;8.50;;;4.10;;
44120;SDS011;29783;52.504;13.478;2023-07-30T01:56:45;7.68;;;4.05;;
44120;SDS011;29783;52.504;13.478;2023-07-30T01:59:11;5.50;;;4.93;;
44120;SDS011;29783;52.504;13.478;2023-07-30T02:01:36;5.22;;;4.47;;
44120;SDS011;29783;52.504;13.478;2023-07-30T02:04:02;8.65;;;4.20;;
44120;SDS011;29783;52.504;13.478;2023-07-30T02:06:28;6.28;;;4.38;;
44120;SDS011;29783;52.504;13.478;2023-07-30T02:08:54;9.00;;;4.63;;
44120;SDS011;29783;52.504;13.478;2023-07-30T02:11:19;9.32;;;4.43;;
44120;SDS011;29783;52.504;13.478;2023-07-30T02:13:45;8.68;;;5.13;;
44120;SDS011;29783;52.504;13.478;2023-07-30T02:16:11;6.95;;;4.57;;
44120;SDS011;29783;52.504;13.478;2023-07-30T02:18:36;6.40;;;5.22;;
44120;SDS011;29783;52.504;13.478;2023-07-30T02:21:02;5.95;;;5.30;;
44120;SDS011;29783;52.504;13.478;2023-07-30T02:23:28;8.82;;;5.55;;
44120;SDS011;29783;52.504;13.478;2023-07-30T02:25:53;8.82;;;5.80;;
44120;SDS011;29783;52.504;13.478;2023-07-30T02:28:19;9.70;;;6.10;;
44120;SDS011;29783;52.504;13.478;2023-07-30T02:30:45;7.68;;;5.78;;
44120;SDS011;29783;52.504;13.478;2023-07-30T02:33:10;8.85;;;6.22;;
44120;SDS011;29783;52.504;13.478;2023-07-30T02:35:36;8.32;;;5.90;;
44120;SDS011;29783;52.504;13.478;2023-07-30T02:38:02;11.82;;;6.40;;
44120;SDS011;29783;52.504;13.478;2023-07-30T02:40:29;8.00;;;6.43;;
44120;SDS011;29783;52.504;13.478;2023-07-30T02:42:55;6.43;;;5.72;;
44120;SDS011;29783;52.504;13.478;2023-07-30T02:45:22;9.18;;;6.82;;
44120;SDS011;29783;52.504;13.478;2023-07-30T02:47:48;8.70;;;6.28;;
44120;SDS011;29783;52.504;13.478;2023-07-30T02:50:13;12.43;;;6.53;;
44120;SDS011;29783;52.504;13.478;2023-07-30T02:52:39;13.32;;;6.13;;
44120;SDS011;29783;52.504;13.478;2023-07-30T02:55:06;9.60;;;6.18;;
44120;SDS011;29783;52.504;13.478;2023-07-30T02:57:31;8.35;;;6.00;;
44120;SDS011;29783;52.504;13.478;2023-07-30T02:59:58;9.80;;;6.30;;
44120;SDS011;29783;52.504;13.478;2023-07-30T03:02:24;10.02;;;6.28;;
44120;SDS011;29783;52.504;13.478;2023-07-30T03:04:49;9.70;;;6.72;;
44120;SDS011;29783;52.504;13.478;2023-07-30T03:07:15;9.32;;;6.75;;
44120;SDS011;29783;52.504;13.478;2023-07-30T03:09:42;9.40;;;7.05;;
44120;SDS011;29783;52.504;13.478;2023-07-30T03:12:08;11.43;;;6.80;;
44120;SDS011;29783;52.504;13.478;2023-07-30T03:14:35;11.23;;;7.10;;
44120;SDS011;29783;52.504;13.478;2023-07-30T03:17:02;9.55;;;7.47;;
44120;SDS011;29783;52.504;13.478;2023-07-30T03:19:29;9.25;;;7.28;;
44120;SDS011;29783;52.504;13.478;2023-07-30T03:21:55;12.27;;;7.00;;
44120;SDS011;29783;52.504;13.478;2023-07-30T03:24:21;15.75;;;7.65;;
44120;SDS011;29783;52.504;13.478;2023-07-30T03:26:46;8.45;;;7.45;;
44120;SDS011;29783;52.504;13.478;2023-07-30T03:29:12;10.10;;;7.25;;
44120;SDS011;29783;52.504;13.478;2023-07-30T03:31:38;10.27;;;7.72;;
44120;SDS011;29783;52.504;13.478;2023-07-30T03:34:03;9.55;;;8.10;;
44120;SDS011;29783;52.504;13.478;2023-07-30T03:36:29;20.35;;;8.13;;
44120;SDS011;29783;52.504;13.478;2023-07-30T03:38:56;11.05;;;7.47;;
44120;SDS011;29783;52.504;13.478;2023-07-30T03:41:22;8.93;;;7.95;;
44120;SDS011;29783;52.504;13.478;2023-07-30T03:43:48;8.95;;;7.70;;
44120;SDS011;29783;52.504;13.478;2023-07-30T03:46:14;11.30;;;7.63;;
44120;SDS011;29783;52.504;13.478;2023-07-30T03:48:40;10.95;;;8.25;;
44120;SDS011;29783;52.504;13.478;2023-07-30T03:51:05;14.27;;;7.93;;
44120;SDS011;29783;52.504;13.478;2023-07-30T03:53:32;11.48;;;8.02;;
44120;SDS011;29783;52.504;13.478;2023-07-30T03:55:58;10.50;;;8.30;;
44120;SDS011;29783;52.504;13.478;2023-07-30T03:58:25;10.40;;;7.70;;
44120;SDS011;29783;52.504;13.478;2023-07-30T04:00:50;9.48;;;7.95;;
44120;SDS011;29783;52.504;13.478;2023-07-30T04:03:16;14.13;;;7.63;;
44120;SDS011;29783;52.504;13.478;2023-07-30T04:05:42;8.00;;;7.10;;
44120;SDS011;29783;52.504;13.478;2023-07-30T04:08:08;10.25;;;7.32;;
44120;SDS011;29783;52.504;13.478;2023-07-30T04:10:34;8.23;;;6.97;;
44120;SDS011;29783;52.504;13.478;2023-07-30T04:13:00;9.73;;;7.60;;
44120;SDS011;29783;52.504;13.478;2023-07-30T04:15:26;11.35;;;7.13;;
44120;SDS011;29783;52.504;13.478;2023-07-30T04:17:52;10.18;;;6.75;;
44120;SDS011;29783;52.504;13.478;2023-07-30T04:20:18;13.25;;;7.18;;
44120;SDS011;29783;52.504;13.478;2023-07-30T04:22:44;10.40;;;5.93;;
44120;SDS011;29783;52.504;13.478;2023-07-30T04:25:09;7.97;;;6.72;;
44120;SDS011;29783;52.504;13.478;2023-07-30T04:27:39;6.82;;;5.93;;
44120;SDS011;29783;52.504;13.478;2023-07-30T04:30:05;13.95;;;5.18;;
44120;SDS011;29783;52.504;13.478;2023-07-30T04:32:32;8.93;;;6.25;;
44120;SDS011;29783;52.504;13.478;2023-07-30T04:34:59;5.90;;;4.88;;
44120;SDS011;29783;52.504;13.478;2023-07-30T04:37:28;6.32;;;4.80;;
44120;SDS011;29783;52.504;13.478;2023-07-30T04:39:54;5.68;;;4.68;;
44120;SDS011;29783;52.504;13.478;2023-07-30T04:42:20;7.13;;;4.75;;
44120;SDS011;29783;52.504;13.478;2023-07-30T04:44:45;7.15;;;4.93;;
44120;SDS011;29783;52.504;13.478;2023-07-30T04:47:11;4.95;;;4.15;;
44120;SDS011;29783;52.504;13.478;2023-07-30T04:49:37;12.48;;;4.22;;
44120;SDS011;29783;52.504;13.478;2023-07-30T04:52:06;8.35;;;4.57;;
44120;SDS011;29783;52.504;13.478;2023-07-30T04:54:36;6.93;;;4.85;;
44120;SDS011;29783;52.504;13.478;2023-07-30T04:57:02;6.90;;;4.70;;
44120;SDS011;29783;52.504;13.478;2023-07-30T04:59:28;5.32;;;4.35;;
44120;SDS011;29783;52.504;13.478;2023-07-30T05:01:54;4.70;;;4.30;;
44120;SDS011;29783;52.504;13.478;2023-07-30T05:04:20;4.80;;;3.95;;
44120;SDS011;29783;52.504;13.478;2023-07-30T05:06:45;4.03;;;3.55;;
44120;SDS011;29783;52.504;13.478;2023-07-30T05:09:13;6.43;;;3.83;;
44120;SDS011;29783;52.504;13.478;2023-07-30T05:11:38;3.85;;;3.33;;
44120;SDS011;29783;52.504;13.478;2023-07-30T05:14:04;6.50;;;3.50;;
44120;SDS011;29783;52.504;13.478;2023-07-30T05:16:30;5.32;;;3.38;;
44120;SDS011;29783;52.504;13.478;2023-07-30T05:18:55;4.53;;;3.38;;
44120;SDS011;29783;52.504;13.478;2023-07-30T05:21:21;4.95;;;3.47;;
44120;SDS011;29783;52.504;13.478;2023-07-30T05:23:47;5.18;;;3.22;;
44120;SDS011;29783;52.504;13.478;2023-07-30T05:26:14;4.18;;;3.50;;
44120;SDS011;29783;52.504;13.478;2023-07-30T05:28:40;3.72;;;3.30;;
44120;SDS011;29783;52.504;13.478;2023-07-30T05:31:05;3.47;;;3.17;;
44120;SDS011;29783;52.504;13.478;2023-07-30T05:33:32;4.18;;;3.15;;
44120;SDS011;29783;52.504;13.478;2023-07-30T05:35:58;3.10;;;2.65;;
44120;SDS011;29783;52.504;13.478;2023-07-30T05:38:24;3.15;;;2.58;;
44120;SDS011;29783;52.504;13.478;2023-07-30T05:40:49;6.10;;;2.70;;
44120;SDS011;29783;52.504;13.478;2023-07-30T05:43:15;2.70;;;2.50;;
44120;SDS011;29783;52.504;13.478;2023-07-30T05:45:41;3.08;;;2.10;;
44120;SDS011;29783;52.504;13.478;2023-07-30T05:48:06;3.58;;;2.17;;
44120;SDS011;29783;52.504;13.478;2023-07-30T05:50:35;3.75;;;2.38;;
44120;SDS011;29783;52.504;13.478;2023-07-30T05:53:02;3.17;;;2.08;;
44120;SDS011;29783;52.504;13.478;2023-07-30T05:55:28;2.70;;;1.98;;
44120;SDS011;29783;52.504;13.478;2023-07-30T05:57:55;2.42;;;2.22;;
44120;SDS011;29783;52.504;13.478;2023-07-30T06:00:20;2.30;;;2.10;;
44120;SDS011;29783;52.504;13.478;2023-07-30T06:02:46;2.50;;;2.10;;
44120;SDS011;29783;52.504;13.478;2023-07-30T06:05:12;3.65;;;2.22;;
44120;SDS011;29783;52.504;13.478;2023-07-30T06:07:38;5.38;;;2.10;;
44120;SDS011;29783;52.504;13.478;2023-07-30T06:10:03;2.33;;;2.13;;
44120;SDS011;29783;52.504;13.478;2023-07-30T06:12:29;2.42;;;1.90;;
44120;SDS011;29783;52.504;13.478;2023-07-30T06:14:55;3.00;;;1.90;;
44120;SDS011;29783;52.504;13.478;2023-07-30T06:17:21;2.35;;;1.73;;
44120;SDS011;29783;52.504;13.478;2023-07-30T06:19:47;2.45;;;1.80;;
44120;SDS011;29783;52.504;13.478;2023-07-30T06:22:12;5.18;;;1.65;;
44120;SDS011;29783;52.504;13.478;2023-07-30T06:24:38;2.65;;;1.90;;
44120;SDS011;29783;52.504;13.478;2023-07-30T06:27:04;5.95;;;2.00;;
44120;SDS011;29783;52.504;13.478;2023-07-30T06:29:30;2.65;;;2.10;;
44120;SDS011;29783;52.504;13.478;2023-07-30T06:31:55;1.75;;;1.65;;
44120;SDS011;29783;52.504;13.478;2023-07-30T06:34:21;2.75;;;1.70;;
44120;SDS011;29783;52.504;13.478;2023-07-30T06:36:47;7.75;;;2.13;;
44120;SDS011;29783;52.504;13.478;2023-07-30T06:39:12;2.95;;;1.83;;
44120;SDS011;29783;52.504;13.478;2023-07-30T06:41:38;1.90;;;1.75;;
44120;SDS011;29783;52.504;13.478;2023-07-30T06:44:04;2.67;;;1.60;;
44120;SDS011;29783;52.504;13.478;2023-07-30T06:46:29;2.90;;;1.75;;
44120;SDS011;29783;52.504;13.478;2023-07-30T06:48:56;3.13;;;1.60;;
44120;SDS011;29783;52.504;13.478;2023-07-30T06:51:23;1.98;;;1.55;;
44120;SDS011;29783;52.504;13.478;2023-07-30T06:53:51;2.55;;;1.52;;
44120;SDS011;29783;52.504;13.478;2023-07-30T06:56:16;8.32;;;1.60;;
44120;SDS011;29783;52.504;13.478;2023-07-30T06:58:42;4.15;;;1.52;;
44120;SDS011;29783;52.504;13.478;2023-07-30T07:01:07;2.10;;;1.70;;
44120;SDS011;29783;52.504;13.478;2023-07-30T07:03:33;7.45;;;1.77;;
44120;SDS011;29783;52.504;13.478;2023-07-30T07:05:59;4.07;;;1.90;;
44120;SDS011;29783;52.504;13.478;2023-07-30T07:08:24;7.90;;;2.00;;
44120;SDS011;29783;52.504;13.478;2023-07-30T07:10:52;2.03;;;1.73;;
44120;SDS011;29783;52.504;13.478;2023-07-30T07:13:17;3.90;;;1.70;;
44120;SDS011;29783;52.504;13.478;2023-07-30T07:15:43;1.48;;;1.20;;
44120;SDS011;29783;52.504;13.478;2023-07-30T07:18:09;1.60;;;1.50;;
44120;SDS011;29783;52.504;13.478;2023-07-30T07:20:36;2.75;;;1.75;;
44120;SDS011;29783;52.504;13.478;2023-07-30T07:23:02;3.40;;;1.70;;
44120;SDS011;29783;52.504;13.478;2023-07-30T07:25:28;1.98;;;1.50;;
44120;SDS011;29783;52.504;13.478;2023-07-30T07:27:54;4.22;;;1.77;;
44120;SDS011;29783;52.504;13.478;2023-07-30T07:30:20;3.33;;;1.88;;
44120;SDS011;29783;52.504;13.478;2023-07-30T07:32:45;2.22;;;1.85;;
44120;SDS011;29783;52.504;13.478;2023-07-30T07:35:15;3.70;;;1.75;;
44120;SDS011;29783;52.504;13.478;2023-07-30T07:37:41;2.47;;;2.05;;
44120;SDS011;29783;52.504;13.478;2023-07-30T07:40:07;3.22;;;1.92;;
44120;SDS011;29783;52.504;13.478;2023-07-30T07:42:34;2.60;;;2.03;;
44120;SDS011;29783;52.504;13.478;2023-07-30T07:45:00;3.58;;;2.25;;
44120;SDS011;29783;52.504;13.478;2023-07-30T07:47:26;3.83;;;1.95;;
44120;SDS011;29783;52.504;13.478;2023-07-30T07:49:51;2.55;;;1.88;;
44120;SDS011;29783;52.504;13.478;2023-07-30T07:52:17;3.47;;;1.70;;
44120;SDS011;29783;52.504;13.478;2023-07-30T07:54:44;3.95;;;1.85;;
44120;SDS011;29783;52.504;13.478;2023-07-30T07:57:10;3.25;;;1.90;;
44120;SDS011;29783;52.504;13.478;2023-07-30T07:59:37;3.15;;;2.17;;
44120;SDS011;29783;52.504;13.478;2023-07-30T08:02:02;3.75;;;2.03;;
44120;SDS011;29783;52.504;13.478;2023-07-30T08:04:28;3.40;;;1.70;;
44120;SDS011;29783;52.504;13.478;2023-07-30T08:06:54;2.25;;;1.80;;
44120;SDS011;29783;52.504;13.478;2023-07-30T08:09:24;2.72;;;1.88;;
44120;SDS011;29783;52.504;13.478;2023-07-30T08:11:50;5.55;;;1.90;;
44120;SDS011;29783;52.504;13.478;2023-07-30T08:14:16;3.42;;;2.00;;
44120;SDS011;29783;52.504;13.478;2023-07-30T08:16:41;3.08;;;1.80;;
44120;SDS011;29783;52.504;13.478;2023-07-30T08:19:07;3.30;;;1.77;;
44120;SDS011;29783;52.504;13.478;2023-07-30T08:21:33;3.33;;;1.52;;
44120;SDS011;29783;52.504;13.478;2023-07-30T08:24:00;4.22;;;2.00;;
44120;SDS011;29783;52.504;13.478;2023-07-30T08:26:25;2.53;;;1.80;;
44120;SDS011;29783;52.504;13.478;2023-07-30T08:28:51;7.55;;;1.75;;
44120;SDS011;29783;52.504;13.478;2023-07-30T08:31:16;3.47;;;1.60;;
44120;SDS011;29783;52.504;13.478;2023-07-30T08:33:42;4.55;;;1.73;;
44120;SDS011;29783;52.504;13.478;2023-07-30T08:36:08;3.33;;;1.77;;
44120;SDS011;29783;52.504;13.478;2023-07-30T08:38:33;3.20;;;1.75;;
44120;SDS011;29783;52.504;13.478;2023-07-30T08:41:00;2.75;;;1.80;;
44120;SDS011;29783;52.504;13.478;2023-07-30T08:43:26;3.55;;;1.88;;
44120;SDS011;29783;52.504;13.478;2023-07-30T08:45:52;6.40;;;1.65;;
44120;SDS011;29783;52.504;13.478;2023-07-30T08:48:17;2.70;;;1.60;;
44120;SDS011;29783;52.504;13.478;2023-07-30T08:50:43;3.30;;;1.55;;
44120;SDS011;29783;52.504;13.478;2023-07-30T08:53:10;3.30;;;1.77;;
44120;SDS011;29783;52.504;13.478;2023-07-30T08:55:38;3.47;;;1.60;;
44120;SDS011;29783;52.504;13.478;2023-07-30T08:58:05;3.08;;;1.50;;
44120;SDS011;29783;52.504;13.478;2023-07-30T09:00:33;5.18;;;1.50;;
44120;SDS011;29783;52.504;13.478;2023-07-30T09:03:02;4.75;;;2.03;;
44120;SDS011;29783;52.504;13.478;2023-07-30T09:05:30;4.88;;;1.58;;
44120;SDS011;29783;52.504;13.478;2023-07-30T09:07:57;8.57;;;1.60;;
44120;SDS011;29783;52.504;13.478;2023-07-30T09:10:23;5.13;;;1.55;;
44120;SDS011;29783;52.504;13.478;2023-07-30T09:12:53;6.45;;;1.73;;
44120;SDS011;29783;52.504;13.478;2023-07-30T09:15:20;6.15;;;1.77;;
44120;SDS011;29783;52.504;13.478;2023-07-30T09:17:58;3.10;;;1.67;;
44120;SDS011;29783;52.504;13.478;2023-07-30T09:20:24;3.58;;;1.90;;
44120;SDS011;29783;52.504;13.478;2023-07-30T09:22:50;3.88;;;1.88;;
44120;SDS011;29783;52.504;13.478;2023-07-30T09:25:18;4.95;;;1.60;;
44120;SDS011;29783;52.504;13.478;2023-07-30T09:27:50;4.05;;;1.67;;
44120;SDS011;29783;52.504;13.478;2023-07-30T09:30:21;4.95;;;1.80;;
44120;SDS011;29783;52.504;13.478;2023-07-30T09:32:51;4.22;;;1.63;;
44120;SDS011;29783;52.504;13.478;2023-07-30T09:35:21;4.80;;;1.60;;
44120;SDS011;29783;52.504;13.478;2023-07-30T09:37:49;6.55;;;1.70;;
44120;SDS011;29783;52.504;13.478;2023-07-30T09:40:22;6.88;;;1.60;;
44120;SDS011;29783;52.504;13.478;2023-07-30T09:42:59;1.77;;;1.30;;
44120;SDS011;29783;52.504;13.478;2023-07-30T09:45:26;3.95;;;1.63;;
44120;SDS011;29783;52.504;13.478;2023-07-30T09:47:53;8.35;;;1.48;;
44120;SDS011;29783;52.504;13.478;2023-07-30T09:50:21;3.80;;;1.48;;
44120;SDS011;29783;52.504;13.478;2023-07-30T09:52:46;6.03;;;1.70;;
44120;SDS011;29783;52.504;13.478;2023-07-30T09:55:13;5.40;;;1.67;;
44120;SDS011;29783;52.504;13.478;2023-07-30T09:57:40;4.15;;;1.58;;
44120;SDS011;29783;52.504;13.478;2023-07-30T10:00:06;1.67;;;1.02;;
44120;SDS011;29783;52.504;13.478;2023-07-30T10:02:37;5.68;;;1.20;;
44120;SDS011;29783;52.504;13.478;2023-07-30T10:05:07;3.25;;;1.55;;
44120;SDS011;29783;52.504;13.478;2023-07-30T10:07:41;4.70;;;1.27;;
44120;SDS011;29783;52.504;13.478;2023-07-30T10:10:11;3.40;;;1.60;;
44120;SDS011;29783;52.504;13.478;2023-07-30T10:12:39;11.13;;;1.90;;
44120;SDS011;29783;52.504;13.478;2023-07-30T10:15:07;8.73;;;1.52;;
44120;SDS011;29783;52.504;13.478;2023-07-30T10:17:33;3.65;;;1.30;;
44120;SDS011;29783;52.504;13.478;2023-07-30T10:20:17;8.75;;;1.60;;
44120;SDS011;29783;52.504;13.478;2023-07-30T10:22:47;2.45;;;1.27;;
44120;SDS011;29783;52.504;13.478;2023-07-30T10:25:17;7.32;;;1.70;;
44120;SDS011;29783;52.504;13.478;2023-07-30T10:27:48;5.90;;;1.77;;
44120;SDS011;29783;52.504;13.478;2023-07-30T10:30:16;2.95;;;1.60;;
44120;SDS011;29783;52.504;13.478;2023-07-30T10:32:58;3.05;;;1.45;;
44120;SDS011;29783;52.504;13.478;2023-07-30T10:35:43;8.93;;;1.65;;
44120;SDS011;29783;52.504;13.478;2023-07-30T10:38:22;3.50;;;1.30;;
44120;SDS011;29783;52.504;13.478;2023-07-30T10:41:07;5.28;;;1.30;;
44120;SDS011;29783;52.504;13.478;2023-07-30T10:43:38;3.17;;;1.35;;
44120;SDS011;29783;52.504;13.478;2023-07-30T10:46:05;2.08;;;1.35;;
44120;SDS011;29783;52.504;13.478;2023-07-30T10:48:39;2.83;;;1.58;;
44120;SDS011;29783;52.504;13.478;2023-07-30T10:51:07;3.95;;;1.70;;
44120;SDS011;29783;52.504;13.478;2023-07-30T10:53:37;5.03;;;1.50;;
44120;SDS011;29783;52.504;13.478;2023-07-30T10:56:04;2.90;;;1.50;;
44120;SDS011;29783;52.504;13.478;2023-07-30T10:58:33;3.72;;;1.60;;
44120;SDS011;29783;52.504;13.478;2023-07-30T11:01:07;3.50;;;1.70;;
44120;SDS011;29783;52.504;13.478;2023-07-30T11:03:35;3.97;;;1.40;;
44120;SDS011;29783;52.504;13.478;2023-07-30T11:06:02;4.63;;;1.48;;
44120;SDS011;29783;52.504;13.478;2023-07-30T11:08:42;4.72;;;1.42;;
44120;SDS011;29783;52.504;13.478;2023-07-30T11:11:08;2.55;;;1.38;;
44120;SDS011;29783;52.504;13.478;2023-07-30T11:13:43;1.90;;;1.15;;
44120;SDS011;29783;52.504;13.478;2023-07-30T11:16:14;7.22;;;1.50;;
44120;SDS011;29783;52.504;13.478;2023-07-30T11:18:43;5.25;;;1.60;;
44120;SDS011;29783;52.504;13.478;2023-07-30T11:21:10;2.60;;;1.40;;
44120;SDS011;29783;52.504;13.478;2023-07-30T11:23:38;4.00;;;1.50;;
44120;SDS011;29783;52.504;13.478;2023-07-30T11:26:06;3.15;;;1.45;;
44120;SDS011;29783;52.504;13.478;2023-07-30T11:28:33;2.45;;;1.27;;
44120;SDS011;29783;52.504;13.478;2023-07-30T11:31:01;13.95;;;2.15;;
44120;SDS011;29783;52.504;13.478;2023-07-30T11:33:31;6.47;;;1.70;;
44120;SDS011;29783;52.504;13.478;2023-07-30T11:35:57;3.40;;;1.30;;
44120;SDS011;29783;52.504;13.478;2023-07-30T11:38:26;3.00;;;1.25;;
44120;SDS011;29783;52.504;13.478;2023-07-30T11:40:53;6.35;;;1.70;;
44120;SDS011;29783;52.504;13.478;2023-07-30T11:43:20;3.10;;;1.27;;
44120;SDS011;29783;52.504;13.478;2023-07-30T11:45:47;4.20;;;1.42;;
44120;SDS011;29783;52.504;13.478;2023-07-30T11:48:13;4.18;;;1.70;;
44120;SDS011;29783;52.504;13.478;2023-07-30T11:50:46;13.85;;;1.90;;
44120;SDS011;29783;52.504;13.478;2023-07-30T11:53:16;7.20;;;1.65;;
44120;SDS011;29783;52.504;13.478;2023-07-30T11:55:42;8.70;;;1.23;;
44120;SDS011;29783;52.504;13.478;2023-07-30T11:58:09;6.95;;;1.75;;
44120;SDS011;29783;52.504;13.478;2023-07-30T12:00:38;5.47;;;1.50;;
44120;SDS011;29783;52.504;13.478;2023-07-30T12:03:09;4.78;;;1.90;;
44120;SDS011;29783;52.504;13.478;2023-07-30T12:08:07;6.25;;;1.50;;
44120;SDS011;29783;52.504;13.478;2023-07-30T12:10:41;4.45;;;1.50;;
44120;SDS011;29783;52.504;13.478;2023-07-30T12:13:15;4.65;;;1.42;;
44120;SDS011;29783;52.504;13.478;2023-07-30T12:15:54;3.58;;;1.85;;
44120;SDS011;29783;52.504;13.478;2023-07-30T12:18:22;5.47;;;1.98;;
44120;SDS011;29783;52.504;13.478;2023-07-30T12:20:52;3.72;;;1.33;;
44120;SDS011;29783;52.504;13.478;2023-07-30T12:23:18;8.93;;;2.08;;
44120;SDS011;29783;52.504;13.478;2023-07-30T12:25:45;6.15;;;1.63;;
44120;SDS011;29783;52.504;13.478;2023-07-30T12:28:13;3.30;;;1.45;;
44120;SDS011;29783;52.504;13.478;2023-07-30T12:30:39;6.53;;;2.20;;
44120;SDS011;29783;52.504;13.478;2023-07-30T12:33:05;3.90;;;1.70;;
44120;SDS011;29783;52.504;13.478;2023-07-30T12:35:31;6.47;;;1.75;;
44120;SDS011;29783;52.504;13.478;2023-07-30T12:37:58;4.63;;;1.30;;
44120;SDS011;29783;52.504;13.478;2023-07-30T12:40:24;9.13;;;1.60;;
44120;SDS011;29783;52.504;13.478;2023-07-30T12:42:50;4.47;;;1.75;;
44120;SDS011;29783;52.504;13.478;2023-07-30T12:45:16;3.25;;;1.63;;
44120;SDS011;29783;52.504;13.478;2023-07-30T12:47:41;3.60;;;1.52;;
44120;SDS011;29783;52.504;13.478;2023-07-30T12:50:07;3.50;;;1.30;;
44120;SDS011;29783;52.504;13.478;2023-07-30T12:52:35;5.53;;;1.92;;
44120;SDS011;29783;52.504;13.478;2023-07-30T12:55:01;3.92;;;1.60;;
44120;SDS011;29783;52.504;13.478;2023-07-30T12:57:31;5.03;;;1.60;;
44120;SDS011;29783;52.504;13.478;2023-07-30T12:59:57;6.45;;;1.52;;
44120;SDS011;29783;52.504;13.478;2023-07-30T13:02:22;5.10;;;1.40;;
44120;SDS011;29783;52.504;13.478;2023-07-30T13:04:48;4.80;;;1.88;;
44120;SDS011;29783;52.504;13.478;2023-07-30T13:07:14;4.85;;;1.65;;
44120;SDS011;29783;52.504;13.478;2023-07-30T13:09:39;2.85;;;1.33;;
44120;SDS011;29783;52.504;13.478;2023-07-30T13:12:07;4.50;;;1.50;;
44120;SDS011;29783;52.504;13.478;2023-07-30T13:14:32;5.05;;;1.83;;
44120;SDS011;29783;52.504;13.478;2023-07-30T13:16:58;4.20;;;1.80;;
44120;SDS011;29783;52.504;13.478;2023-07-30T13:19:24;10.20;;;1.52;;
44120;SDS011;29783;52.504;13.478;2023-07-30T13:21:49;6.68;;;1.75;;
44120;SDS011;29783;52.504;13.478;2023-07-30T13:24:15;4.60;;;1.40;;
44120;SDS011;29783;52.504;13.478;2023-07-30T13:26:41;3.20;;;1.77;;
44120;SDS011;29783;52.504;13.478;2023-07-30T13:29:08;3.05;;;1.58;;
44120;SDS011;29783;52.504;13.478;2023-07-30T13:31:35;4.57;;;1.55;;
44120;SDS011;29783;52.504;13.478;2023-07-30T13:34:01;4.00;;;1.83;;
44120;SDS011;29783;52.504;13.478;2023-07-30T13:36:29;6.28;;;1.88;;
44120;SDS011;29783;52.504;13.478;2023-07-30T13:38:54;3.55;;;1.55;;
44120;SDS011;29783;52.504;13.478;2023-07-30T13:41:20;6.22;;;1.63;;
44120;SDS011;29783;52.504;13.478;2023-07-30T13:43:57;12.48;;;1.60;;
44120;SDS011;29783;52.504;13.478;2023-07-30T13:46:22;3.17;;;1.38;;
44120;SDS011;29783;52.504;13.478;2023-07-30T13:48:48;3.30;;;1.58;;
44120;SDS011;29783;52.504;13.478;2023-07-30T13:51:14;4.10;;;1.65;;
44120;SDS011;29783;52.504;13.478;2023-07-30T13:53:39;5.40;;;1.65;;
44120;SDS011;29783;52.504;13.478;2023-07-30T13:56:06;4.70;;;1.52;;
44120;SDS011;29783;52.504;13.478;2023-07-30T13:58:32;2.95;;;1.17;;
44120;SDS011;29783;52.504;13.478;2023-07-30T14:00:59;3.50;;;1.30;;
44120;SDS011;29783;52.504;13.478;2023-07-30T14:03:26;6.07;;;1.27;;
44120;SDS011;29783;52.504;13.478;2023-07-30T14:05:52;2.17;;;1.05;;
44120;SDS011;29783;52.504;13.478;2023-07-30T14:08:17;5.88;;;1.40;;
44120;SDS011;29783;52.504;13.478;2023-07-30T14:10:43;3.55;;;1.20;;
44120;SDS011;29783;52.504;13.478;2023-07-30T14:13:09;5.70;;;1.20;;
44120;SDS011;29783;52.504;13.478;2023-07-30T14:15:35;6.20;;;1.23;;
44120;SDS011;29783;52.504;13.478;2023-07-30T14:18:01;2.78;;;0.93;;
44120;SDS011;29783;52.504;13.478;2023-07-30T14:20:28;1.85;;;0.98;;
44120;SDS011;29783;52.504;13.478;2023-07-30T14:22:54;4.38;;;1.15;;
44120;SDS011;29783;52.504;13.478;2023-07-30T14:25:20;7.60;;;1.17;;
44120;SDS011;29783;52.504;13.478;2023-07-30T14:27:47;2.33;;;1.08;;
44120;SDS011;29783;52.504;13.478;2023-07-30T14:30:14;3.30;;;1.30;;
44120;SDS011;29783;52.504;13.478;2023-07-30T14:32:40;1.55;;;0.80;;
44120;SDS011;29783;52.504;13.478;2023-07-30T14:35:05;1.70;;;0.98;;
44120;SDS011;29783;52.504;13.478;2023-07-30T14:37:31;2.30;;;1.30;;
44120;SDS011;29783;52.504;13.478;2023-07-30T14:39:58;3.00;;;1.10;;
44120;SDS011;29783;52.504;13.478;2023-07-30T14:42:25;3.15;;;1.10;;